West Hartford, Connecticut
Current Conditions -  °F | °C
As of 1:53 PM on Tuesday 27 Jan 2015 (Local Time) from KHFD Reporting Station
Haze Haze  
Wind Chill: 12°   Ceiling: 6500
Heat Index: 26°   Visibility: 5mi
Dew Point: 12°   Wind: 20mph
Humidity: 55%   Direction: 350°N
Pressure: 29.58"   Gusts: 32mph
Location:  41.76°N, 72.74°W
Report Text: KHFD 271853Z 35017G28KT 5SM HZ FEW043 BKN065 OVC075 M03/M11 A2958 RMK AO2 PK WND 02028/1847 SLP017 T10331111 $
Loading
Personal Weather Stations






























Interactive Weather Map New forecast layout! Learn more

10-Day Weather Forecast

Advertisements
Track Severe Weather on mobile